createdAt,value
2022-11-22T00:00:10.463Z,6.50
2022-11-22T00:01:09.263Z,6.30
2022-11-22T00:02:09.904Z,6.10
2022-11-22T00:03:09.235Z,6.50
2022-11-22T00:04:09.256Z,6.10
2022-11-22T00:05:09.265Z,5.80
2022-11-22T00:06:09.244Z,6.50
2022-11-22T00:07:09.317Z,6.10
2022-11-22T00:08:09.225Z,5.10
2022-11-22T00:09:09.220Z,4.90
2022-11-22T00:10:10.502Z,5.10
2022-11-22T00:11:09.223Z,5.00
2022-11-22T00:12:09.193Z,5.40
2022-11-22T00:13:09.222Z,5.40
2022-11-22T00:14:09.172Z,4.80
2022-11-22T00:15:09.178Z,5.70
2022-11-22T00:16:09.189Z,5.00
2022-11-22T00:17:09.159Z,5.70
2022-11-22T00:18:09.154Z,6.00
2022-11-22T00:19:09.150Z,4.70
2022-11-22T00:20:09.128Z,4.80
2022-11-22T00:21:09.132Z,3.90
2022-11-22T00:22:09.124Z,4.70
2022-11-22T00:23:09.140Z,5.40
2022-11-22T00:24:10.177Z,4.20
2022-11-22T00:25:09.103Z,4.90
2022-11-22T00:26:09.093Z,5.20
2022-11-22T00:27:09.076Z,5.10
2022-11-22T00:28:09.862Z,5.00
2022-11-22T00:29:09.066Z,5.90
2022-11-22T00:30:09.098Z,5.70
2022-11-22T00:31:09.148Z,5.70
2022-11-22T00:32:09.052Z,4.90
2022-11-22T00:33:09.048Z,5.80
2022-11-22T00:34:09.078Z,5.60
2022-11-22T00:35:09.021Z,5.20
2022-11-22T00:36:09.038Z,5.40
2022-11-22T00:37:09.719Z,6.30
2022-11-22T00:38:09.025Z,6.50
2022-11-22T00:39:09.568Z,5.90
2022-11-22T00:40:08.994Z,6.30
2022-11-22T00:41:08.995Z,5.70
2022-11-22T00:42:08.997Z,6.90
2022-11-22T00:43:08.981Z,5.70
2022-11-22T00:44:08.983Z,6.20
2022-11-22T00:45:08.951Z,7.20
2022-11-22T00:46:08.971Z,8.50
2022-11-22T00:47:09.700Z,8.20
2022-11-22T00:48:08.940Z,7.80
2022-11-22T00:49:08.946Z,7.60
2022-11-22T00:50:08.950Z,6.90
2022-11-22T00:51:08.916Z,6.90
2022-11-22T00:52:08.967Z,7.50
2022-11-22T00:53:08.908Z,6.40
2022-11-22T00:54:08.915Z,7.20
2022-11-22T00:55:09.545Z,6.70
2022-11-22T00:56:08.930Z,7.10
2022-11-22T00:57:08.927Z,6.70
2022-11-22T00:58:08.891Z,6.00
2022-11-22T00:59:08.884Z,7.70
2022-11-22T01:00:08.864Z,7.10
2022-11-22T01:01:09.016Z,7.30
2022-11-22T01:02:08.858Z,6.70
2022-11-22T01:03:08.846Z,7.50
2022-11-22T01:04:08.888Z,7.20
2022-11-22T01:05:08.839Z,9.60
2022-11-22T01:06:08.835Z,12.30
2022-11-22T01:07:08.900Z,8.40
2022-11-22T01:08:08.807Z,7.60
2022-11-22T01:09:08.820Z,9.00
2022-11-22T01:10:08.810Z,8.00
2022-11-22T01:11:08.808Z,7.60
2022-11-22T01:12:09.499Z,8.20
2022-11-22T01:13:08.779Z,8.40
2022-11-22T01:14:08.766Z,10.00
2022-11-22T01:15:08.751Z,9.50
2022-11-22T01:16:08.776Z,8.30
2022-11-22T01:17:08.737Z,7.60
2022-11-22T01:18:08.746Z,9.80
2022-11-22T01:19:08.739Z,8.80
2022-11-22T01:20:08.728Z,9.60
2022-11-22T01:21:08.740Z,7.80
2022-11-22T01:22:08.747Z,9.30
2022-11-22T01:23:08.740Z,10.30
2022-11-22T01:24:09.567Z,8.10
2022-11-22T01:25:08.709Z,8.20
2022-11-22T01:26:08.729Z,9.20
2022-11-22T01:27:09.745Z,9.10
2022-11-22T01:28:08.676Z,9.90
2022-11-22T01:29:08.659Z,9.80
2022-11-22T01:30:08.680Z,8.60
2022-11-22T01:31:08.667Z,7.90
2022-11-22T01:32:08.676Z,9.20
2022-11-22T01:33:08.714Z,10.00
2022-11-22T01:34:08.722Z,9.10
2022-11-22T01:35:10.568Z,9.20
2022-11-22T01:36:08.634Z,11.20
2022-11-22T01:37:08.606Z,10.30
2022-11-22T01:38:08.620Z,10.80
2022-11-22T01:39:08.619Z,9.10
2022-11-22T01:40:08.595Z,7.80
2022-11-22T01:41:09.272Z,9.00
2022-11-22T01:42:09.175Z,9.00
2022-11-22T01:43:08.595Z,8.90
2022-11-22T01:44:08.578Z,9.60
2022-11-22T01:45:08.604Z,8.10
2022-11-22T01:46:08.543Z,9.00
2022-11-22T01:47:08.551Z,8.30
2022-11-22T01:48:08.597Z,8.30
2022-11-22T01:49:08.621Z,9.40
2022-11-22T01:50:08.528Z,10.70
2022-11-22T01:51:08.532Z,8.50
2022-11-22T01:52:09.774Z,9.60
2022-11-22T01:53:08.518Z,8.20
2022-11-22T01:54:08.496Z,8.90
2022-11-22T01:55:08.494Z,9.30
2022-11-22T01:56:08.526Z,10.20
2022-11-22T01:57:10.581Z,9.90
2022-11-22T01:58:08.471Z,9.40
2022-11-22T01:59:08.818Z,10.10
2022-11-22T02:00:08.447Z,9.60
2022-11-22T02:01:08.543Z,8.50
2022-11-22T02:02:08.453Z,9.20
2022-11-22T02:03:08.452Z,9.10
2022-11-22T02:04:08.439Z,10.60
2022-11-22T02:05:08.442Z,9.00
2022-11-22T02:06:09.329Z,9.40
2022-11-22T02:07:08.459Z,8.00
2022-11-22T02:08:08.407Z,9.00
2022-11-22T02:09:08.399Z,9.80
2022-11-22T02:10:08.395Z,8.80
2022-11-22T02:11:08.404Z,10.90
2022-11-22T02:12:08.541Z,10.20
2022-11-22T02:13:08.402Z,10.90
2022-11-22T02:14:08.356Z,10.90
2022-11-22T02:15:08.380Z,10.00
2022-11-22T02:16:08.354Z,10.20
2022-11-22T02:17:10.232Z,8.10
2022-11-22T02:18:08.330Z,9.50
2022-11-22T02:19:08.448Z,9.60
2022-11-22T02:20:08.333Z,10.80
2022-11-22T02:21:08.322Z,10.90
2022-11-22T02:22:08.323Z,9.70
2022-11-22T02:23:08.978Z,9.10
2022-11-22T02:24:08.309Z,10.00
2022-11-22T02:25:08.313Z,8.00
2022-11-22T02:26:08.284Z,8.80
2022-11-22T02:27:08.283Z,8.40
2022-11-22T02:28:08.280Z,9.60
2022-11-22T02:29:08.271Z,7.40
2022-11-22T02:30:08.291Z,8.30
2022-11-22T02:31:08.298Z,6.70
2022-11-22T02:32:08.249Z,6.70
2022-11-22T02:33:08.261Z,6.60
2022-11-22T02:34:09.278Z,6.50
2022-11-22T02:35:08.314Z,6.40
2022-11-22T02:36:08.256Z,6.30
2022-11-22T02:37:08.348Z,6.90
2022-11-22T02:38:08.204Z,6.70
2022-11-22T02:39:08.204Z,6.30
2022-11-22T02:40:08.204Z,6.50
2022-11-22T02:41:08.198Z,6.30
2022-11-22T02:42:08.207Z,5.90
2022-11-22T02:43:08.400Z,5.30
2022-11-22T02:44:08.166Z,5.50
2022-11-22T02:45:08.181Z,5.40
2022-11-22T02:46:08.153Z,5.70
2022-11-22T02:47:08.181Z,5.60
2022-11-22T02:48:08.863Z,5.50
2022-11-22T02:49:08.165Z,5.90
2022-11-22T02:50:08.155Z,5.60
2022-11-22T02:51:08.138Z,5.60
2022-11-22T02:52:08.147Z,4.50
2022-11-22T02:53:08.376Z,3.70
2022-11-22T02:54:08.121Z,5.80
2022-11-22T02:55:08.116Z,5.30
2022-11-22T02:56:08.098Z,6.10
2022-11-22T02:57:08.432Z,6.60
2022-11-22T02:58:08.106Z,4.90
2022-11-22T02:59:08.082Z,6.10
2022-11-22T03:00:09.431Z,5.90
2022-11-22T03:01:08.179Z,5.20
2022-11-22T03:02:08.060Z,5.30
2022-11-22T03:03:08.081Z,5.40
2022-11-22T03:04:08.083Z,5.90
2022-11-22T03:05:15.540Z,5.50
2022-11-22T03:06:08.034Z,5.10
2022-11-22T03:07:08.067Z,4.90
2022-11-22T03:08:08.020Z,5.00
2022-11-22T03:09:08.038Z,5.30
2022-11-22T03:10:29.032Z,4.70
2022-11-22T03:11:07.991Z,5.10
2022-11-22T03:12:08.007Z,4.60
2022-11-22T03:13:07.978Z,4.30
2022-11-22T03:14:07.983Z,4.40
2022-11-22T03:15:07.996Z,5.70
2022-11-22T03:16:09.104Z,5.30
2022-11-22T03:17:07.968Z,4.50
2022-11-22T03:18:07.977Z,5.40
2022-11-22T03:19:07.984Z,5.00
2022-11-22T03:20:07.961Z,4.90
2022-11-22T03:21:08.894Z,4.00
2022-11-22T03:22:07.957Z,5.00
2022-11-22T03:23:07.915Z,4.90
2022-11-22T03:24:07.938Z,4.40
2022-11-22T03:25:07.992Z,4.30
2022-11-22T03:26:07.915Z,4.50
2022-11-22T03:27:07.954Z,5.20
2022-11-22T03:28:07.948Z,4.60
2022-11-22T03:29:07.887Z,3.40
2022-11-22T03:30:07.956Z,4.10
2022-11-22T03:31:07.889Z,3.90
2022-11-22T03:32:08.011Z,5.30
2022-11-22T03:33:07.872Z,4.70
2022-11-22T03:34:07.891Z,5.10
2022-11-22T03:35:07.950Z,4.60
2022-11-22T03:36:07.916Z,5.20
2022-11-22T03:37:07.879Z,5.30
2022-11-22T03:38:07.827Z,4.70
2022-11-22T03:39:07.840Z,5.50
2022-11-22T03:40:08.258Z,5.40
2022-11-22T03:41:07.812Z,4.60
2022-11-22T03:42:07.831Z,5.70
2022-11-22T03:43:07.789Z,4.50
2022-11-22T03:44:07.802Z,5.70
2022-11-22T03:45:07.782Z,5.70
2022-11-22T03:46:07.772Z,5.30
2022-11-22T03:47:07.768Z,4.40
2022-11-22T03:48:07.755Z,5.60
2022-11-22T03:49:07.767Z,5.00
2022-11-22T03:50:07.772Z,5.70
2022-11-22T03:51:09.032Z,5.70
2022-11-22T03:52:07.742Z,6.90
2022-11-22T03:53:07.750Z,4.80
2022-11-22T03:54:07.725Z,4.60
2022-11-22T03:55:07.726Z,4.90
2022-11-22T03:56:10.103Z,6.40
2022-11-22T03:57:07.702Z,4.50
2022-11-22T03:58:07.731Z,5.00
2022-11-22T03:59:07.711Z,5.40
2022-11-22T04:00:07.686Z,5.80
2022-11-22T04:01:11.967Z,5.70
2022-11-22T04:02:08.777Z,6.10
2022-11-22T04:03:07.656Z,6.60
2022-11-22T04:04:08.741Z,6.50
2022-11-22T04:05:07.644Z,6.80
2022-11-22T04:06:07.651Z,6.50
2022-11-22T04:07:07.722Z,6.90
2022-11-22T04:08:07.667Z,6.20
2022-11-22T04:09:07.740Z,6.30
2022-11-22T04:10:07.652Z,6.90
2022-11-22T04:11:07.655Z,5.30
2022-11-22T04:12:07.631Z,6.10
2022-11-22T04:13:07.605Z,4.90
2022-11-22T04:14:07.582Z,5.00
2022-11-22T04:15:07.645Z,4.90
2022-11-22T04:16:07.573Z,5.50
2022-11-22T04:17:08.086Z,5.10
2022-11-22T04:18:07.593Z,5.70
2022-11-22T04:19:07.546Z,6.10
2022-11-22T04:20:07.558Z,4.30
2022-11-22T04:21:07.535Z,6.30
2022-11-22T04:22:07.610Z,5.80
2022-11-22T04:23:07.578Z,5.40
2022-11-22T04:24:07.540Z,5.80
2022-11-22T04:25:07.499Z,6.30
2022-11-22T04:26:07.534Z,7.10
2022-11-22T04:27:07.523Z,7.10
2022-11-22T04:28:07.499Z,6.60
2022-11-22T04:29:10.082Z,6.40
2022-11-22T04:30:07.493Z,5.50
2022-11-22T04:31:07.461Z,6.60
2022-11-22T04:32:07.476Z,6.70
2022-11-22T04:33:08.291Z,6.40
2022-11-22T04:34:08.105Z,5.70
2022-11-22T04:35:07.446Z,6.20
2022-11-22T04:36:13.012Z,7.10
2022-11-22T04:37:08.886Z,6.60
2022-11-22T04:38:08.071Z,5.50
2022-11-22T04:39:07.431Z,7.00
2022-11-22T04:40:07.416Z,6.60
2022-11-22T04:41:07.409Z,8.30
2022-11-22T04:42:07.419Z,8.70
2022-11-22T04:43:07.383Z,5.10
2022-11-22T04:44:07.404Z,6.90
2022-11-22T04:45:07.405Z,7.20
2022-11-22T04:46:07.372Z,6.60
2022-11-22T04:47:07.369Z,7.00
2022-11-22T04:48:07.362Z,8.20
2022-11-22T04:49:07.370Z,7.10
2022-11-22T04:50:09.234Z,7.30
2022-11-22T04:51:07.325Z,7.10
2022-11-22T04:52:07.340Z,7.30
2022-11-22T04:53:07.313Z,6.80
2022-11-22T04:54:07.326Z,6.10
2022-11-22T04:55:07.352Z,7.50
2022-11-22T04:56:07.304Z,7.00
2022-11-22T04:57:07.327Z,6.40
2022-11-22T04:58:07.357Z,7.00
2022-11-22T04:59:09.470Z,7.30
2022-11-22T05:00:07.291Z,6.50
2022-11-22T05:01:07.316Z,6.10
2022-11-22T05:02:08.321Z,7.10
2022-11-22T05:03:07.270Z,6.90
2022-11-22T05:04:07.273Z,7.30
2022-11-22T05:05:07.247Z,6.00
2022-11-22T05:06:07.255Z,6.20
2022-11-22T05:07:07.301Z,7.20
2022-11-22T05:08:07.244Z,6.90
2022-11-22T05:09:08.674Z,7.60
2022-11-22T05:10:07.219Z,7.10
2022-11-22T05:11:07.823Z,7.50
2022-11-22T05:12:07.217Z,6.30
2022-11-22T05:13:07.192Z,6.10
2022-11-22T05:14:07.182Z,6.80
2022-11-22T05:15:07.179Z,7.10
2022-11-22T05:16:07.187Z,6.40
2022-11-22T05:17:10.326Z,6.90
2022-11-22T05:18:08.188Z,6.30
2022-11-22T05:19:07.153Z,6.40
2022-11-22T05:20:07.159Z,5.00
2022-11-22T05:21:07.445Z,7.30
2022-11-22T05:22:07.138Z,6.80
2022-11-22T05:23:07.166Z,6.00
2022-11-22T05:24:07.130Z,7.70
2022-11-22T05:25:07.400Z,7.10
2022-11-22T05:26:07.120Z,7.20
2022-11-22T05:27:07.120Z,7.20
2022-11-22T05:28:07.095Z,6.30
2022-11-22T05:29:07.118Z,5.90
2022-11-22T05:30:07.103Z,6.90
2022-11-22T05:31:07.413Z,6.30
2022-11-22T05:32:07.080Z,6.30
2022-11-22T05:33:07.061Z,7.20
2022-11-22T05:34:07.319Z,7.10
2022-11-22T05:35:07.050Z,7.10
2022-11-22T05:36:07.042Z,6.40
2022-11-22T05:37:07.040Z,6.00
2022-11-22T05:38:07.051Z,6.40
2022-11-22T05:39:07.010Z,6.60
2022-11-22T05:40:07.026Z,6.20
2022-11-22T05:41:06.990Z,5.40
2022-11-22T05:42:06.997Z,6.10
2022-11-22T05:43:07.041Z,6.60
2022-11-22T05:44:06.998Z,6.60
2022-11-22T05:45:07.242Z,6.20
2022-11-22T05:46:06.970Z,6.40
2022-11-22T05:47:14.064Z,6.30
2022-11-22T05:48:06.970Z,6.30
2022-11-22T05:49:06.941Z,6.90
2022-11-22T05:50:06.956Z,7.20
2022-11-22T05:51:06.931Z,7.00
2022-11-22T05:52:06.928Z,5.80
2022-11-22T05:53:07.445Z,7.30
2022-11-22T05:54:06.915Z,6.40
2022-11-22T05:55:06.912Z,6.80
2022-11-22T05:56:06.930Z,5.20
2022-11-22T05:57:06.910Z,6.70
2022-11-22T05:58:06.892Z,6.40
2022-11-22T05:59:06.914Z,6.80
2022-11-22T06:00:06.888Z,5.70
2022-11-22T06:01:07.499Z,7.60
2022-11-22T06:02:06.948Z,8.50
2022-11-22T06:03:06.873Z,7.80
2022-11-22T06:04:06.851Z,6.20
2022-11-22T06:05:06.841Z,6.80
2022-11-22T06:06:07.324Z,5.90
2022-11-22T06:07:10.004Z,5.60
2022-11-22T06:08:06.872Z,4.40
2022-11-22T06:09:06.829Z,7.50
2022-11-22T06:10:06.804Z,6.00
2022-11-22T06:11:06.813Z,5.60
2022-11-22T06:12:06.801Z,5.50
2022-11-22T06:13:07.270Z,5.60
2022-11-22T06:14:07.047Z,6.00
2022-11-22T06:15:27.815Z,5.30
2022-11-22T06:16:06.775Z,5.60
2022-11-22T06:17:06.770Z,4.80
2022-11-22T06:18:06.777Z,4.90
2022-11-22T06:19:06.747Z,5.80
2022-11-22T06:20:06.998Z,5.40
2022-11-22T06:21:06.752Z,4.70
2022-11-22T06:22:06.730Z,5.20
2022-11-22T06:23:06.734Z,5.40
2022-11-22T06:24:06.738Z,6.00
2022-11-22T06:25:06.717Z,5.20
2022-11-22T06:26:06.722Z,5.40
2022-11-22T06:27:06.701Z,5.10
2022-11-22T06:28:06.679Z,5.80
2022-11-22T06:29:07.234Z,6.00
2022-11-22T06:30:06.690Z,6.00
2022-11-22T06:31:06.700Z,5.00
2022-11-22T06:32:06.667Z,5.30
2022-11-22T06:33:06.671Z,5.10
2022-11-22T06:34:08.930Z,4.50
2022-11-22T06:35:06.655Z,5.20
2022-11-22T06:36:06.645Z,5.60
2022-11-22T06:37:06.628Z,5.90
2022-11-22T06:38:06.630Z,5.50
2022-11-22T06:39:06.635Z,5.60
2022-11-22T06:40:06.603Z,5.50
2022-11-22T06:41:06.616Z,5.40
2022-11-22T06:42:06.588Z,4.50
2022-11-22T06:43:06.610Z,4.70
2022-11-22T06:44:07.383Z,4.90
2022-11-22T06:45:06.584Z,4.70
2022-11-22T06:46:06.568Z,5.20
2022-11-22T06:47:06.601Z,5.10
2022-11-22T06:48:06.571Z,5.60
2022-11-22T06:49:06.552Z,5.40
2022-11-22T06:50:06.740Z,5.30
2022-11-22T06:51:06.544Z,4.80
2022-11-22T06:52:06.521Z,5.90
2022-11-22T06:53:06.546Z,6.20
2022-11-22T06:54:06.522Z,6.50
2022-11-22T06:55:08.238Z,6.60
2022-11-22T06:56:06.509Z,6.60
2022-11-22T06:57:07.767Z,6.20
2022-11-22T06:58:06.496Z,6.20
2022-11-22T06:59:06.505Z,6.60
2022-11-22T07:00:06.490Z,6.70
2022-11-22T07:01:06.565Z,6.40
2022-11-22T07:02:07.088Z,6.50
2022-11-22T07:03:06.496Z,7.20
2022-11-22T07:04:06.450Z,6.70
2022-11-22T07:05:31.667Z,6.60
2022-11-22T07:06:07.436Z,6.30
2022-11-22T07:07:07.931Z,5.80
2022-11-22T07:08:13.289Z,5.40
2022-11-22T07:09:07.427Z,5.50
2022-11-22T07:10:06.405Z,4.60
2022-11-22T07:11:06.417Z,4.50
2022-11-22T07:12:06.401Z,5.00
2022-11-22T07:13:06.395Z,4.50
2022-11-22T07:14:08.919Z,4.80
2022-11-22T07:15:06.380Z,4.60
2022-11-22T07:16:07.076Z,4.50
2022-11-22T07:17:06.380Z,4.80
2022-11-22T07:18:06.362Z,5.00
2022-11-22T07:19:06.410Z,4.60
2022-11-22T07:20:06.503Z,5.10
2022-11-22T07:21:12.159Z,4.60
2022-11-22T07:22:07.321Z,4.60
2022-11-22T07:23:06.372Z,5.20
2022-11-22T07:24:06.323Z,4.90
2022-11-22T07:25:06.314Z,4.60
2022-11-22T07:26:06.299Z,4.50
2022-11-22T07:27:06.307Z,5.20
2022-11-22T07:28:06.281Z,5.40
2022-11-22T07:29:06.296Z,4.50
2022-11-22T07:30:06.278Z,4.90
2022-11-22T07:31:06.279Z,6.20
2022-11-22T07:32:06.271Z,5.30
2022-11-22T07:33:06.262Z,5.60
2022-11-22T07:34:06.245Z,5.00
2022-11-22T07:35:06.288Z,5.30
2022-11-22T07:36:06.243Z,4.60
2022-11-22T07:37:09.245Z,4.80
2022-11-22T07:38:06.227Z,5.80
2022-11-22T07:39:06.220Z,5.00
2022-11-22T07:40:06.216Z,4.50
2022-11-22T07:41:06.216Z,4.70
2022-11-22T07:42:06.646Z,4.70
2022-11-22T07:43:06.219Z,4.40
2022-11-22T07:44:06.232Z,4.50
2022-11-22T07:45:06.184Z,4.50
2022-11-22T07:46:06.177Z,4.30
2022-11-22T07:47:06.201Z,4.80
2022-11-22T07:48:06.152Z,5.30
2022-11-22T07:49:06.161Z,5.00
2022-11-22T07:50:06.165Z,4.10
2022-11-22T07:51:06.175Z,3.90
2022-11-22T07:52:06.121Z,4.10
2022-11-22T07:53:06.232Z,4.70
2022-11-22T07:54:06.109Z,5.00
2022-11-22T07:55:10.999Z,4.60
2022-11-22T07:56:07.112Z,4.50
2022-11-22T07:57:06.804Z,4.60
2022-11-22T07:58:06.086Z,4.60
2022-11-22T07:59:06.078Z,4.00
2022-11-22T08:00:06.104Z,4.90
2022-11-22T08:01:06.205Z,4.50
2022-11-22T08:02:07.306Z,4.10
2022-11-22T08:03:06.163Z,4.50
2022-11-22T08:04:06.044Z,4.70
2022-11-22T08:05:06.039Z,4.60
2022-11-22T08:06:06.033Z,4.10
2022-11-22T08:07:06.235Z,3.70
2022-11-22T08:08:06.706Z,4.10
2022-11-22T08:09:06.030Z,4.00
2022-11-22T08:10:05.999Z,5.20
2022-11-22T08:11:06.866Z,5.00
2022-11-22T08:12:05.989Z,4.70
2022-11-22T08:13:05.988Z,5.00
2022-11-22T08:14:06.000Z,4.20
2022-11-22T08:15:05.976Z,5.00
2022-11-22T08:16:06.298Z,4.90
2022-11-22T08:17:05.981Z,4.10
2022-11-22T08:18:05.943Z,5.00
2022-11-22T08:19:05.973Z,5.00
2022-11-22T08:20:05.947Z,4.80
2022-11-22T08:21:05.945Z,5.20
2022-11-22T08:22:05.922Z,4.40
2022-11-22T08:23:06.052Z,4.70
2022-11-22T08:24:05.930Z,4.80
2022-11-22T08:25:05.918Z,5.30
2022-11-22T08:26:05.922Z,4.80
2022-11-22T08:27:05.899Z,5.60
2022-11-22T08:28:05.883Z,5.00
2022-11-22T08:29:13.707Z,5.30
2022-11-22T08:30:06.875Z,5.40
2022-11-22T08:31:05.905Z,5.60
2022-11-22T08:32:05.865Z,5.70
2022-11-22T08:33:05.863Z,5.90
2022-11-22T08:34:05.849Z,6.50
2022-11-22T08:35:05.847Z,5.60
2022-11-22T08:36:05.830Z,5.80
2022-11-22T08:37:05.891Z,6.60
2022-11-22T08:38:05.827Z,6.60
2022-11-22T08:39:05.942Z,5.20
2022-11-22T08:40:05.821Z,6.40
2022-11-22T08:41:05.826Z,6.70
2022-11-22T08:42:05.804Z,7.10
2022-11-22T08:43:05.812Z,6.40
2022-11-22T08:44:05.834Z,6.10
2022-11-22T08:45:05.795Z,6.40
2022-11-22T08:46:05.773Z,5.70
2022-11-22T08:47:05.775Z,5.90
2022-11-22T08:48:05.772Z,6.20
2022-11-22T08:49:05.750Z,6.60
2022-11-22T08:50:06.565Z,6.20
2022-11-22T08:51:05.754Z,6.70
2022-11-22T08:52:05.766Z,6.50
2022-11-22T08:53:05.733Z,7.00
2022-11-22T08:54:05.729Z,6.00
2022-11-22T08:55:05.836Z,6.40
2022-11-22T08:56:05.706Z,6.30
2022-11-22T08:57:06.595Z,7.30
2022-11-22T08:58:05.692Z,7.00
2022-11-22T08:59:05.708Z,7.90
2022-11-22T09:00:05.697Z,7.30
2022-11-22T09:01:05.692Z,6.80
2022-11-22T09:02:05.681Z,7.90
2022-11-22T09:03:05.658Z,6.50
2022-11-22T09:04:05.688Z,5.70
2022-11-22T09:05:05.654Z,5.70
2022-11-22T09:08:22.988Z,4.80
2022-11-22T09:10:06.601Z,6.10
2022-11-22T09:11:05.732Z,5.00
2022-11-22T09:12:05.614Z,5.00
2022-11-22T09:13:05.595Z,5.60
2022-11-22T09:14:05.592Z,5.80
2022-11-22T09:15:05.575Z,5.70
2022-11-22T09:16:05.587Z,5.70
2022-11-22T09:17:05.941Z,5.50
2022-11-22T09:18:05.570Z,5.10
2022-11-22T09:19:05.557Z,5.60
2022-11-22T09:20:05.745Z,5.70
2022-11-22T09:21:05.548Z,4.80
2022-11-22T09:22:05.537Z,5.00
2022-11-22T09:23:05.523Z,5.10
2022-11-22T09:24:05.530Z,5.50
2022-11-22T09:25:05.519Z,4.80
2022-11-22T09:26:06.446Z,5.40
2022-11-22T09:27:05.616Z,5.20
2022-11-22T09:28:05.507Z,5.90
2022-11-22T09:29:05.489Z,4.60
2022-11-22T09:30:05.499Z,5.20
2022-11-22T09:31:26.484Z,6.10
2022-11-22T09:32:05.477Z,6.20
2022-11-22T09:33:05.468Z,5.00
2022-11-22T09:34:05.463Z,5.10
2022-11-22T09:35:05.449Z,5.50
2022-11-22T09:36:05.458Z,4.40
2022-11-22T09:37:05.644Z,4.20
2022-11-22T09:38:05.465Z,4.20
2022-11-22T09:39:05.850Z,4.10
2022-11-22T09:40:05.468Z,3.80
2022-11-22T09:41:05.414Z,4.20
2022-11-22T09:42:05.443Z,4.10
2022-11-22T09:43:05.527Z,4.30
2022-11-22T09:44:07.109Z,4.30
2022-11-22T09:45:05.404Z,3.90
2022-11-22T09:46:05.388Z,4.10
2022-11-22T09:47:05.377Z,4.20
2022-11-22T09:48:09.547Z,3.70
2022-11-22T09:49:05.358Z,3.10
2022-11-22T09:50:05.376Z,4.30
2022-11-22T09:51:05.350Z,3.60
2022-11-22T09:52:05.348Z,4.10
2022-11-22T09:53:05.337Z,2.90
2022-11-22T09:54:05.332Z,3.40
2022-11-22T09:55:05.484Z,3.20
2022-11-22T09:56:05.324Z,3.90
2022-11-22T09:57:05.316Z,2.90
2022-11-22T09:58:05.877Z,2.90
2022-11-22T09:59:05.409Z,3.20
2022-11-22T10:00:05.303Z,3.30
2022-11-22T10:01:05.346Z,3.20
2022-11-22T10:02:17.439Z,2.70
2022-11-22T10:03:06.266Z,3.30
2022-11-22T10:04:05.492Z,2.90
2022-11-22T10:05:05.262Z,2.40
2022-11-22T10:06:05.255Z,2.20
2022-11-22T10:07:05.450Z,3.10
2022-11-22T10:08:05.266Z,2.90
2022-11-22T10:09:05.221Z,3.00
2022-11-22T10:10:05.679Z,2.80
2022-11-22T10:11:05.211Z,2.60
2022-11-22T10:12:05.213Z,2.60
2022-11-22T10:13:05.202Z,4.50
2022-11-22T10:14:05.199Z,2.40
2022-11-22T10:15:05.840Z,2.70
2022-11-22T10:16:05.175Z,2.80
2022-11-22T10:17:05.213Z,2.90
2022-11-22T10:18:05.191Z,2.70
2022-11-22T10:19:06.733Z,3.50
2022-11-22T10:20:05.199Z,2.80
2022-11-22T10:21:05.161Z,3.30
2022-11-22T10:22:05.136Z,2.60
2022-11-22T10:23:05.141Z,2.70
2022-11-22T10:24:05.152Z,2.80
2022-11-22T10:25:05.792Z,2.60
2022-11-22T10:26:05.103Z,3.00
2022-11-22T10:27:05.105Z,2.70
2022-11-22T10:28:05.095Z,2.60
2022-11-22T10:29:05.100Z,2.90
2022-11-22T10:30:05.462Z,2.70
2022-11-22T10:31:05.205Z,2.50
2022-11-22T10:32:05.070Z,3.10
2022-11-22T10:33:05.066Z,2.50
2022-11-22T10:34:05.057Z,2.90
2022-11-22T10:35:06.149Z,2.30
2022-11-22T10:36:05.667Z,3.10
2022-11-22T10:37:05.045Z,3.00
2022-11-22T10:38:05.021Z,2.50
2022-11-22T10:39:05.114Z,3.10
2022-11-22T10:40:05.364Z,2.50
2022-11-22T10:41:05.943Z,2.80
2022-11-22T10:42:07.183Z,2.90
2022-11-22T10:43:05.005Z,2.70
2022-11-22T10:44:04.985Z,2.80
2022-11-22T10:45:05.639Z,3.10
2022-11-22T10:46:04.980Z,2.60
2022-11-22T10:47:05.107Z,4.20
2022-11-22T10:48:04.956Z,2.30
2022-11-22T10:49:04.968Z,2.70
2022-11-22T10:50:04.942Z,2.30
2022-11-22T10:51:04.947Z,2.60
2022-11-22T10:52:04.982Z,2.70
2022-11-22T10:53:04.927Z,2.40
2022-11-22T10:54:04.918Z,3.00
2022-11-22T10:55:04.942Z,2.30
2022-11-22T10:56:05.635Z,2.40
2022-11-22T10:57:04.888Z,2.20
2022-11-22T10:58:04.897Z,2.40
2022-11-22T10:59:04.882Z,2.30
2022-11-22T11:00:04.874Z,2.40
2022-11-22T11:01:05.658Z,2.00
2022-11-22T11:02:04.852Z,2.40
2022-11-22T11:03:04.979Z,2.40
2022-11-22T11:04:05.603Z,2.40
2022-11-22T11:05:04.843Z,2.20
2022-11-22T11:06:22.725Z,2.10
2022-11-22T11:07:14.430Z,2.20
2022-11-22T11:08:36.763Z,2.00
2022-11-22T11:10:02.745Z,2.00
2022-11-22T11:10:11.782Z,2.10
2022-11-22T11:11:05.797Z,2.50
2022-11-22T11:12:06.757Z,2.00
2022-11-22T11:13:04.785Z,2.70
2022-11-22T11:14:04.773Z,2.50
2022-11-22T11:15:04.778Z,1.80
2022-11-22T11:16:04.844Z,1.90
2022-11-22T11:17:04.782Z,2.50
2022-11-22T11:18:04.777Z,2.10
2022-11-22T11:19:04.866Z,2.20
2022-11-22T11:20:04.730Z,1.90
2022-11-22T11:21:04.814Z,1.90
2022-11-22T11:22:04.733Z,2.00
2022-11-22T11:23:20.455Z,2.70
2022-11-22T11:24:05.691Z,1.80
2022-11-22T11:25:04.702Z,2.00
2022-11-22T11:26:04.676Z,1.80
2022-11-22T11:27:05.597Z,1.90
2022-11-22T11:28:04.683Z,1.90
2022-11-22T11:29:05.263Z,1.70
2022-11-22T11:30:04.657Z,2.10
2022-11-22T11:31:04.680Z,1.70
2022-11-22T11:32:04.642Z,1.50
2022-11-22T11:33:04.638Z,2.30
2022-11-22T11:34:04.649Z,1.80
2022-11-22T11:35:04.758Z,2.30
2022-11-22T11:36:04.616Z,2.00
2022-11-22T11:37:04.621Z,1.70
2022-11-22T11:38:04.600Z,2.40
2022-11-22T11:39:04.617Z,1.80
2022-11-22T11:40:04.592Z,1.40
2022-11-22T11:41:04.585Z,1.70
2022-11-22T11:42:04.581Z,2.00
2022-11-22T11:43:04.578Z,1.60
2022-11-22T11:44:05.712Z,1.70
2022-11-22T11:45:04.568Z,1.30
2022-11-22T11:46:04.539Z,2.50
2022-11-22T11:47:04.552Z,2.40
2022-11-22T11:48:12.641Z,2.10
2022-11-22T11:49:04.529Z,1.60
2022-11-22T11:50:04.862Z,2.00
2022-11-22T11:51:04.638Z,2.10
2022-11-22T11:52:04.580Z,2.30
2022-11-22T11:53:04.495Z,1.60
2022-11-22T11:54:04.505Z,1.90
2022-11-22T11:55:04.492Z,2.30
2022-11-22T11:56:04.527Z,1.70
2022-11-22T11:57:05.549Z,1.60
2022-11-22T11:58:04.483Z,2.20
2022-11-22T11:59:04.472Z,2.10
2022-11-22T12:00:04.467Z,2.50
2022-11-22T12:01:04.520Z,1.80
2022-11-22T12:02:05.180Z,1.10
2022-11-22T12:03:04.446Z,1.40
2022-11-22T12:04:04.468Z,1.60
2022-11-22T12:05:04.485Z,1.80
2022-11-22T12:06:04.546Z,1.50
2022-11-22T12:07:04.743Z,1.40
2022-11-22T12:08:04.667Z,2.10
2022-11-22T12:09:04.409Z,1.70
2022-11-22T12:10:04.395Z,1.70
2022-11-22T12:11:04.409Z,1.90
2022-11-22T12:12:04.485Z,1.60
2022-11-22T12:13:05.020Z,1.70
2022-11-22T12:14:20.629Z,1.50
2022-11-22T12:15:13.041Z,2.10
2022-11-22T12:16:05.352Z,2.30
2022-11-22T12:17:04.350Z,1.70
2022-11-22T12:18:04.369Z,2.40
2022-11-22T12:19:04.347Z,1.80
2022-11-22T12:20:04.333Z,2.00
2022-11-22T12:21:04.310Z,1.50
2022-11-22T12:22:04.359Z,1.60
2022-11-22T12:23:04.422Z,1.30
2022-11-22T12:24:34.409Z,2.60
2022-11-22T12:25:30.887Z,1.80
2022-11-22T12:26:05.283Z,2.00
2022-11-22T12:27:04.297Z,2.40
2022-11-22T12:28:04.276Z,1.70
2022-11-22T12:29:06.980Z,1.40
2022-11-22T12:30:04.356Z,1.60
2022-11-22T12:31:04.248Z,1.70
2022-11-22T12:32:04.245Z,1.80
2022-11-22T12:33:04.230Z,0.80
2022-11-22T12:34:04.234Z,2.20
2022-11-22T12:35:04.224Z,2.00
2022-11-22T12:36:04.244Z,1.40
2022-11-22T12:37:04.207Z,2.00
2022-11-22T12:38:25.324Z,1.80
2022-11-22T12:39:04.253Z,2.00
2022-11-22T12:40:04.204Z,2.00
2022-11-22T12:41:04.225Z,1.20
2022-11-22T12:42:05.053Z,1.90
2022-11-22T12:43:04.329Z,2.20
2022-11-22T12:44:04.168Z,2.10
2022-11-22T12:45:04.199Z,1.60
2022-11-22T12:46:04.161Z,1.50
2022-11-22T12:47:04.436Z,1.50
2022-11-22T12:48:05.455Z,1.70
2022-11-22T12:49:04.127Z,1.70
2022-11-22T12:50:04.136Z,2.10
2022-11-22T12:51:04.164Z,1.50
2022-11-22T12:52:04.130Z,1.40
2022-11-22T12:53:04.171Z,1.80
2022-11-22T12:54:04.302Z,1.90
2022-11-22T12:55:04.122Z,1.30
2022-11-22T12:56:04.983Z,1.50
2022-11-22T12:57:04.075Z,2.00
2022-11-22T12:58:04.094Z,1.70
2022-11-22T12:59:04.065Z,1.50
2022-11-22T13:00:04.090Z,1.80
2022-11-22T13:01:04.600Z,2.00
2022-11-22T13:02:04.078Z,1.80
2022-11-22T13:03:04.073Z,1.30
2022-11-22T13:04:04.071Z,1.40
2022-11-22T13:05:04.031Z,1.90
2022-11-22T13:06:04.292Z,1.30
2022-11-22T13:07:04.123Z,1.30
2022-11-22T13:08:04.013Z,1.60
2022-11-22T13:09:04.490Z,1.60
2022-11-22T13:10:05.253Z,1.30
2022-11-22T13:11:06.830Z,1.70
2022-11-22T13:12:06.724Z,2.10
2022-11-22T13:13:04.162Z,1.80
2022-11-22T13:14:03.976Z,1.60
2022-11-22T13:15:04.105Z,1.30
2022-11-22T13:16:04.040Z,2.10
2022-11-22T13:17:03.941Z,1.80
2022-11-22T13:18:05.070Z,1.50
2022-11-22T13:19:03.927Z,2.20
2022-11-22T13:20:03.931Z,2.70